Terminal Aerodrome Forecast
Issued by NWS

Current Version | Previous Version | Text Only | Print | Product List | Glossary On
Versions: 1 2 3 4 5 6 7 8 9 10 11 12 13
000
FTUS44 KEPZ 282326
TAFDMN
TAF
KDMN 282326Z 2900/2924 VRB05KT P6SM VCTS SCT080CB BKN150 BKN250
      TEMPO 2900/2902 VRB25G40KT 2SM TSRA BKN040CB
     FM290400 07007KT P6SM SCT100 BKN200
     FM291900 10007KT P6SM VCTS SCT070CB BKN250=

USA.gov is the U.S. government's official web portal to all federal, state and local government web resources and services.